McFarland, CA (93250)

2:28 PM PDT on September 04, 2015 (GMT -0700)
APRSWXNET | | Change Station
CLOSE
Current Station
Personal Weather Station
Location: Earlimart, CA
Elevation: 213 ft
Nearby Weather Stations

Elev 213 ft 35.86 °N, 119.39 °W | Updated 23 minutes ago

Clear
Clear
87 °F
Feels Like 85 °F
N
7
Wind Variable Wind from WNW
Gusts 16.0 mph

Today
High -- | Low -- °F
--% Chance of Precip.
Yesterday
High -- | Low -- °F
Precip. -- in
6:31 AM 7:20 PM
Waning Gibbous, 56% visible
Pressure 29.79 in
Visibility 10.0 miles
Clouds Clear
Heat Index 85 °F
Dew Point 54 °F
Humidity 32%
Rainfall in
Snow Depth Not available.
UV 9 out of 12
Pollen 9.20 out of 12
Air Quality Not available.
Flu Activity Not available.
METAR KBFL 042054Z 29007KT 10SM CLR 29/09 A2981 RMK AO2 SLP088 T02890089 58016
Pressure 29.79 in
Visibility 10.0 miles
Clouds Clear
Heat Index 85 °F
Dew Point 54 °F
Humidity 32%
Rainfall in
Snow Depth Not available.
UV 9 out of 12
Pollen 9.20 out of 12
Air Quality Not available.
Flu Activity Not available.
METAR KBFL 042054Z 29007KT 10SM CLR 29/09 A2981 RMK AO2 SLP088 T02890089 58016

10-Day Weather Forecast

×

Almanac

Astronomy

Sep. 04, 2015 Rise Set
Actual Time
Civil Twilight
Nautical Twilight
Astronomical Twilight
Moon
Length of Visible Light
Length of Day
Tomorrow will be .
, % of the Moon is Illuminated

Today's Extremes

State Highs State Lows

Community

WunderPhotos

Upload Photos

1,852,297 photos uploaded!

WunderBlogs® & News

Nearby

Air Quality

  Air Quality AQ Index Pollutant
Not available.

Snow Depth

Station Depth Elevation

Earthquake Activity

City Distance Mag. Time & Date
Minimum magnitude displayed is 2.5.

Coastal Water Temperatures

Place Temperature

Stations

Nearby Weather Stations

Station Location Temp. Windchill Dew Point Humidity Wind Precip. Elev Updated Type